This demonstration page uses our WeatherBlox Daily Observations layout. Learn more.

Left ArrowRight Arrow

Hourly Observations for December 15, 2020

Temp ( °F °C ) Dew Point ( °F °C ) Humidity (%) Winds ( mph kmh ) Pressure ( in mb ) Visibility ( mi km ) Precip ( " mm )
12:54 am 00:54 Clear 19 -7.2 14 -10 81 81 ENE 6 9 30.33 1027 10 16.0934 0 0
1:54 am 01:54 Clear 19 -7.2 14 -10 81 81 E 7 11 30.32 1027 10 16.0934 0 0
2:54 am 02:54 Clear 19 -7.2 14 -10 81 81 E 8 13 30.3 1026 10 16.0934 0 0
3:54 am 03:54 Clear 19 -7.2 14 -10 81 81 ENE 7 11 30.3 1026 10 16.0934 0 0
4:54 am 04:54 Clear 19 -7.2 14 -10 81 81 E 6 9 30.28 1026 10 16.0934 0 0
5:54 am 05:54 Clear 18 -7.8 13 -10.6 81 81 ENE 6 9 30.29 1026 10 16.0934 0 0
6:54 am 06:54 Clear 17 -8.3 12 -11.1 80 80 E 5 7 30.3 1026 10 16.0934 0 0
7:54 am 07:54 Sunny 18 -7.8 13 -10.6 81 81 E 5 7 30.31 1026 9 14.48406 0 0
8:54 am 08:54 Mostly Cloudy 19 -7.2 13 -10.6 77 77 E 6 9 30.32 1027 9 14.48406 0 0
9:54 am 09:54 Cloudy 19 -7.2 13 -10.6 77 77 ENE 7 11 30.32 1027 10 16.0934 0 0
10:54 am 10:54 Cloudy 19 -7.2 13 -10.6 77 77 ENE 10 17 30.32 1027 9 14.48406 0 0
11:54 am 11:54 Cloudy 20 -6.7 14 -10 78 78 ENE 7 11 30.29 1026 10 16.0934 0 0
12:54 pm 12:54 Cloudy 21 -6.1 15 -9.4 78 78 Calm 30.26 1025 9 14.48406 0 0
1:54 pm 13:54 Cloudy 22 -5.6 16 -8.9 78 78 E 6 9 30.23 1024 9 14.48406 0 0
2:54 pm 14:54 Cloudy 23 -5 16 -8.9 74 74 ENE 3 6 30.2 1023 9 14.48406 0 0
3:54 pm 15:54 Cloudy 22 -5.6 16 -8.9 78 78 NNE 9 15 30.19 1022 7 11.26538 0 0
4:54 pm 16:54 Cloudy 22 -5.6 16 -8.9 78 78 NE 6 9 30.2 1023 8 12.87472 0 0
5:54 pm 17:54 Cloudy 22 -5.6 17 -8.3 82 82 NE 6 9 30.19 1023 9 14.48406 0 0
6:54 pm 18:54 Cloudy 22 -5.6 16 -8.9 78 78 NNE 6 9 30.2 1023 9 14.48406 0 0
7:54 pm 19:54 Cloudy 22 -5.6 17 -8.3 82 82 NE 5 7 30.2 1023 8 12.87472 0 0
8:54 pm 20:54 Cloudy 22 -5.6 17 -8.3 82 82 ESE 3 6 30.19 1022 8 12.87472 0 0
9:54 pm 21:54 Cloudy 22 -5.6 17 -8.3 82 82 E 6 9 30.17 1022 8 12.87472 0 0
10:54 pm 22:54 Cloudy 22 -5.6 16 -8.9 78 78 Calm 30.17 1022 8 12.87472 0 0
11:54 pm 23:54 Partly Cloudy 21 -6.1 16 -8.9 81 81 ESE 3 6 30.16 1021 8 12.87472 0 0

Powered by AerisWeather